| time (UTC) | temp F | wind direction | speed MPH | gust MPH | rain 1hr in | rain 24hr in | rain mn in | humidity % | barometer mb |
| 20260505125030 | 60 | 22 | 0.0 | 1.0 | 0.00 | 1.12 | 1.12 | 97 | 1007.0 |
| 20260505124527 | 60 | 348 | 0.0 | 2.0 | 0.00 | 1.12 | 1.12 | 97 | 1007.0 |
| 20260505124023 | 60 | 355 | 1.0 | 2.0 | 0.00 | 1.12 | 1.12 | 97 | 1007.0 |
| 20260505123520 | 60 | 329 | 1.0 | 1.0 | 0.00 | 1.12 | 1.12 | 97 | 1007.4 |
| 20260505123016 | 60 | 350 | 0.0 | 2.0 | 0.00 | 1.12 | 1.12 | 97 | 1007.0 |
| 20260505122513 | 60 | 349 | 0.0 | 1.0 | 0.00 | 1.12 | 1.12 | 97 | 1006.8 |
| 20260505122010 | 60 | 66 | 1.0 | 3.0 | 0.00 | 1.12 | 1.12 | 97 | 1006.8 |
| 20260505121506 | 60 | 352 | 0.0 | 0.0 | 0.00 | 1.12 | 1.12 | 97 | 1006.6 |
| 20260505121003 | 60 | 26 | 2.0 | 2.0 | 0.00 | 1.12 | 1.12 | 97 | 1006.6 |
| 20260505120459 | 60 | 347 | 0.0 | 0.0 | 0.00 | 1.12 | 1.12 | 97 | 1006.8 |
| 20260505115958 | 60 | 348 | 0.0 | 2.0 | 0.00 | 1.12 | 1.12 | 97 | 1006.5 |
| 20260505115455 | 60 | 345 | 0.0 | 3.0 | 0.00 | 1.12 | 1.12 | 97 | 1006.4 |
| 20260505114953 | 60 | 358 | 0.0 | 1.0 | 0.00 | 1.12 | 1.12 | 97 | 1006.5 |
| 20260505114449 | 60 | 352 | 0.0 | 2.0 | 0.00 | 1.12 | 1.12 | 97 | 1006.6 |
| 20260505113946 | 60 | 349 | 0.0 | 1.0 | 0.00 | 1.12 | 1.12 | 97 | 1006.5 |
| 20260505113442 | 60 | 357 | 0.0 | 1.0 | 0.00 | 1.12 | 1.12 | 97 | 1006.3 |
| 20260505112937 | 60 | 353 | 0.0 | 1.0 | 0.00 | 1.12 | 1.12 | 97 | 1006.4 |
| 20260505112435 | 60 | 29 | 1.0 | 2.0 | 0.00 | 1.12 | 1.12 | 97 | 1006.5 |
| 20260505111932 | 60 | 38 | 0.0 | 2.0 | 0.00 | 1.12 | 1.12 | 97 | 1006.4 |
| 20260505111426 | 59 | 351 | 0.0 | 2.0 | 0.00 | 1.12 | 1.12 | 97 | 1006.4 |
| 20260505110923 | 59 | 341 | 0.0 | 1.0 | 0.00 | 1.12 | 1.12 | 97 | 1006.0 |
| 20260505110420 | 59 | 338 | 0.0 | 2.0 | 0.00 | 1.12 | 1.12 | 97 | 1006.2 |
| 20260505101851 | 60 | 47 | 1.0 | 1.0 | 0.00 | 1.12 | 1.12 | 98 | 1007.4 |
| 20260505101346 | 60 | 2 | 0.0 | 1.0 | 0.00 | 1.12 | 1.12 | 98 | 1007.3 |
| 20260505100841 | 60 | 340 | 0.0 | 1.0 | 0.00 | 1.12 | 1.12 | 98 | 1007.6 |
| 20260505100338 | 59 | 351 | 0.0 | 2.0 | 0.00 | 1.12 | 1.12 | 98 | 1007.6 |
| 20260505095834 | 59 | 44 | 1.0 | 2.0 | 0.00 | 1.12 | 1.12 | 98 | 1007.3 |
| 20260505095332 | 59 | 349 | 0.0 | 2.0 | 0.00 | 1.12 | 1.12 | 98 | 1007.5 |
| 20260505094827 | 59 | 341 | 0.0 | 1.0 | 0.00 | 1.12 | 1.12 | 98 | 1007.4 |
| 20260505094325 | 59 | 359 | 1.0 | 2.0 | 0.00 | 1.12 | 1.12 | 98 | 1007.4 |
| 20260505093820 | 59 | 353 | 0.0 | 0.0 | 0.05 | 1.12 | 1.12 | 98 | 1007.6 |
| 20260505093318 | 59 | 343 | 0.0 | 2.0 | 0.05 | 1.12 | 1.12 | 98 | 1007.7 |
| 20260505092814 | 59 | 349 | 0.0 | 1.0 | 0.00 | 1.11 | 1.11 | 98 | 1007.7 |
| 20260505092313 | 59 | 342 | 0.0 | 0.0 | 0.07 | 1.11 | 1.11 | 98 | 1007.7 |
| 20260505091810 | 59 | 345 | 0.0 | 0.0 | 0.12 | 1.11 | 1.11 | 98 | 1007.7 |
| 20260505091303 | 59 | 349 | 0.0 | 1.0 | 0.05 | 1.10 | 1.10 | 98 | 1007.6 |
| 20260505090800 | 59 | 351 | 0.0 | 0.0 | 0.00 | 1.09 | 1.09 | 98 | 1007.8 |
| 20260505090258 | 59 | 39 | 1.0 | 2.0 | 0.07 | 1.09 | 1.09 | 98 | 1007.6 |
| 20260505085755 | 59 | 349 | 0.0 | 1.0 | 0.07 | 1.09 | 1.09 | 98 | 1007.9 |
| 20260505085253 | 59 | 347 | 0.0 | 1.0 | 0.19 | 1.08 | 1.08 | 98 | 1008.0 |
| 20260505084750 | 59 | 11 | 0.0 | 1.0 | 0.78 | 1.08 | 1.08 | 98 | 1007.6 |
| 20260505084249 | 59 | 347 | 0.0 | 1.0 | 0.85 | 1.04 | 1.04 | 98 | 1008.1 |
| 20260505083745 | 59 | 72 | 0.0 | 2.0 | 0.28 | 0.94 | 0.94 | 97 | 1008.2 |
| 20260505083242 | 59 | 310 | 3.0 | 6.0 | 0.17 | 0.90 | 0.90 | 98 | 1008.3 |
| 20260505082738 | 59 | 348 | 0.0 | 0.0 | 0.42 | 0.89 | 0.89 | 98 | 1007.3 |
| 20260505082236 | 59 | 356 | 0.0 | 1.0 | 0.42 | 0.87 | 0.87 | 97 | 1007.0 |
| 20260505081732 | 59 | 358 | 1.0 | 1.0 | 0.12 | 0.82 | 0.82 | 98 | 1007.0 |
| 20260505081229 | 59 | 3 | 1.0 | 1.0 | 0.07 | 0.80 | 0.80 | 97 | 1007.8 |
| 20260505080726 | 59 | 352 | 1.0 | 1.0 | 0.12 | 0.80 | 0.80 | 97 | 1007.1 |
| 20260505080221 | 59 | 348 | 0.0 | 1.0 | 0.05 | 0.79 | 0.79 | 97 | 1007.3 |
| 20260505075717 | 59 | 77 | 1.0 | 1.0 | 0.07 | 0.78 | 0.78 | 97 | 1007.4 |
| 20260505075215 | 59 | 9 | 0.0 | 1.0 | 0.24 | 0.78 | 0.78 | 97 | 1007.7 |
| 20260505074712 | 59 | 15 | 1.0 | 1.0 | 0.35 | 0.77 | 0.77 | 97 | 1007.6 |
| 20260505074209 | 59 | 335 | 1.0 | 5.0 | 0.24 | 0.74 | 0.74 | 97 | 1008.1 |
| 20260505073706 | 59 | 337 | 2.0 | 7.0 | 0.24 | 0.71 | 0.71 | 97 | 1007.9 |
| 20260505073204 | 59 | 299 | 2.0 | 7.0 | 1.58 | 0.70 | 0.70 | 97 | 1008.0 |
| 20260505072700 | 60 | 81 | 5.0 | 7.0 | 1.75 | 0.65 | 0.65 | 96 | 1007.4 |
| 20260505072156 | 61 | 347 | 5.0 | 9.0 | 1.02 | 0.43 | 0.43 | 96 | 1008.6 |
| 20260505071652 | 61 | 129 | 2.0 | 5.0 | 0.42 | 0.33 | 0.33 | 95 | 1007.6 |
| 20260505071150 | 61 | 159 | 3.0 | 5.0 | 0.07 | 0.26 | 0.26 | 95 | 1007.2 |
| 20260505070647 | 61 | 314 | 1.0 | 5.0 | 0.54 | 0.26 | 0.26 | 95 | 1006.6 |
| 20260505070143 | 61 | 7 | 1.0 | 2.0 | 0.50 | 0.24 | 0.24 | 95 | 1007.3 |
| 20260505065639 | 61 | 337 | 1.0 | 2.0 | 0.07 | 0.17 | 0.17 | 94 | 1007.2 |
| 20260505065136 | 61 | 319 | 0.0 | 1.0 | 0.05 | 0.16 | 0.16 | 94 | 1006.9 |
| 20260505064633 | 62 | 351 | 0.0 | 1.0 | 0.35 | 0.16 | 0.16 | 94 | 1007.3 |
| 20260505064131 | 62 | 344 | 0.0 | 1.0 | 0.42 | 0.14 | 0.14 | 93 | 1006.6 |
| 20260505063628 | 62 | 354 | 1.0 | 2.0 | 0.14 | 0.09 | 0.09 | 92 | 1007.2 |
| 20260505063124 | 62 | 313 | 1.0 | 2.0 | 0.05 | 0.07 | 0.07 | 92 | 1008.7 |
| 20260505062621 | 62 | 316 | 3.0 | 5.0 | 0.05 | 0.07 | 0.07 | 91 | 1007.8 |
| 20260505062118 | 62 | 340 | 0.0 | 2.0 | 0.07 | 0.06 | 0.06 | 90 | 1006.8 |
| 20260505061615 | 63 | 298 | 1.0 | 2.0 | 0.07 | 0.06 | 0.06 | 89 | 1006.9 |
| 20260505061113 | 63 | 1 | 1.0 | 3.0 | 0.05 | 0.05 | 0.05 | 87 | 1007.1 |
| 20260505060610 | 63 | 353 | 0.0 | 3.0 | 0.12 | 0.05 | 0.05 | 86 | 1007.6 |
| 20260505060107 | 64 | 339 | 0.0 | 1.0 | 0.19 | 0.04 | 0.04 | 86 | 1008.0 |
| 20260505055602 | 65 | 202 | 1.0 | 2.0 | 0.17 | 0.03 | 0.03 | 83 | 1007.8 |
| 20260505055059 | 67 | 343 | 1.0 | 1.0 | 0.05 | 0.01 | 0.01 | 79 | 1008.0 |
| 20260505054556 | 67 | 339 | 2.0 | 3.0 | 0.00 | 0.00 | 0.00 | 74 | 1008.2 |
| 20260505054055 | 68 | 328 | 0.0 | 1.0 | 0.00 | 0.00 | 0.00 | 73 | 1007.9 |
| 20260505053551 | 68 | 347 | 0.0 | 1.0 | 0.00 | 0.00 | 0.00 | 71 | 1008.0 |
| 20260505053048 | 68 | 349 | 0.0 | 0.0 | 0.00 | 0.00 | 0.00 | 71 | 1008.2 |
| 20260505052545 | 68 | 345 | 0.0 | 1.0 | 0.00 | 0.00 | 0.00 | 70 | 1008.1 |
| 20260505052043 | 68 | 342 | 0.0 | 1.0 | 0.00 | 0.00 | 0.00 | 70 | 1008.0 |
| 20260505051539 | 68 | 333 | 2.0 | 3.0 | 0.00 | 0.00 | 0.00 | 70 | 1007.6 |
| 20260505051037 | 68 | 2 | 1.0 | 2.0 | 0.00 | 0.00 | 0.00 | 71 | 1007.4 |
| 20260505050535 | 68 | 359 | 1.0 | 1.0 | 0.00 | 0.00 | 0.00 | 71 | 1007.2 |
| 20260505041503 | 67 | 304 | 1.0 | 1.0 | 0.00 | 0.00 | 0.00 | 73 | 1008.0 |
| 20260505041000 | 67 | 344 | 0.0 | 1.0 | 0.00 | 0.00 | 0.00 | 73 | 1008.1 |
| 20260505040457 | 67 | 342 | 0.0 | 2.0 | 0.00 | 0.00 | 0.00 | 72 | 1008.0 |
| 20260505035954 | 67 | 344 | 0.0 | 2.0 | 0.00 | 0.00 | 0.00 | 72 | 1008.2 |
| 20260505035450 | 67 | 338 | 0.0 | 2.0 | 0.00 | 0.00 | 0.00 | 72 | 1008.0 |
| 20260505034948 | 68 | 344 | 1.0 | 2.0 | 0.00 | 0.00 | 0.00 | 72 | 1008.2 |
| 20260505034444 | 68 | 347 | 0.0 | 1.0 | 0.00 | 0.00 | 0.00 | 72 | 1008.2 |
| 20260505033941 | 68 | 340 | 1.0 | 1.0 | 0.00 | 0.00 | 0.00 | 72 | 1008.3 |
| 20260505033438 | 68 | 4 | 0.0 | 1.0 | 0.00 | 0.00 | 0.00 | 72 | 1008.4 |
| 20260505032936 | 68 | 350 | 0.0 | 1.0 | 0.00 | 0.00 | 0.00 | 71 | 1008.2 |
| 20260505032433 | 68 | 339 | 1.0 | 1.0 | 0.00 | 0.00 | 0.00 | 71 | 1008.5 |
| 20260505031929 | 68 | 344 | 0.0 | 3.0 | 0.00 | 0.00 | 0.00 | 71 | 1008.5 |
| 20260505031426 | 68 | 357 | 0.0 | 2.0 | 0.00 | 0.00 | 0.00 | 71 | 1008.4 |
| 20260505030923 | 68 | 351 | 0.0 | 1.0 | 0.00 | 0.00 | 0.00 | 71 | 1008.5 |
| 20260505030419 | 68 | 347 | 1.0 | 1.0 | 0.00 | 0.00 | 0.00 | 70 | 1008.5 |
| 20260505025915 | 69 | 342 | 0.0 | 1.0 | 0.00 | 0.00 | 0.00 | 70 | 1008.4 |
| 20260505025412 | 69 | 343 | 0.0 | 2.0 | 0.00 | 0.00 | 0.00 | 70 | 1008.3 |
| 20260505024911 | 69 | 352 | 0.0 | 2.0 | 0.00 | 0.00 | 0.00 | 70 | 1008.5 |
| 20260505024408 | 69 | 337 | 0.0 | 1.0 | 0.00 | 0.00 | 0.00 | 70 | 1008.5 |
| 20260505023905 | 69 | 335 | 0.0 | 1.0 | 0.00 | 0.00 | 0.00 | 69 | 1008.4 |
| 20260505023402 | 69 | 315 | 0.0 | 1.0 | 0.00 | 0.00 | 0.00 | 69 | 1008.2 |
| 20260505022859 | 69 | 326 | 0.0 | 1.0 | 0.00 | 0.00 | 0.00 | 69 | 1008.2 |
| 20260505022356 | 69 | 345 | 0.0 | 1.0 | 0.00 | 0.00 | 0.00 | 69 | 1008.2 |
| 20260505021854 | 69 | 345 | 0.0 | 2.0 | 0.00 | 0.00 | 0.00 | 69 | 1008.1 |
| 20260505021350 | 69 | 345 | 0.0 | 0.0 | 0.00 | 0.00 | 0.00 | 69 | 1008.1 |
| 20260505020846 | 69 | 346 | 0.0 | 1.0 | 0.00 | 0.00 | 0.00 | 68 | 1008.1 |
| 20260505020341 | 69 | 349 | 0.0 | 0.0 | 0.00 | 0.00 | 0.00 | 68 | 1008.1 |
| 20260505015838 | 70 | 346 | 0.0 | 0.0 | 0.00 | 0.00 | 0.00 | 68 | 1008.0 |
| 20260505015336 | 70 | 348 | 0.0 | 0.0 | 0.00 | 0.00 | 0.00 | 67 | 1008.0 |
| 20260505014833 | 70 | 349 | 0.0 | 0.0 | 0.00 | 0.00 | 0.00 | 67 | 1008.0 |
| 20260505014330 | 70 | 339 | 1.0 | 2.0 | 0.00 | 0.00 | 0.00 | 66 | 1007.9 |
| 20260505013826 | 70 | 278 | 1.0 | 1.0 | 0.00 | 0.00 | 0.00 | 66 | 1008.0 |
| 20260505013323 | 71 | 339 | 0.0 | 1.0 | 0.00 | 0.00 | 0.00 | 65 | 1007.7 |
| 20260505012822 | 71 | 278 | 1.0 | 2.0 | 0.00 | 0.00 | 0.00 | 65 | 1007.8 |
| 20260505012319 | 71 | 340 | 0.0 | 1.0 | 0.00 | 0.00 | 0.00 | 65 | 1007.5 |
| 20260505011815 | 71 | 343 | 0.0 | 2.0 | 0.00 | 0.00 | 0.00 | 64 | 1007.7 |
| 20260505011312 | 71 | 325 | 0.0 | 2.0 | 0.00 | 0.00 | 0.00 | 64 | 1007.5 |
| 20260505010808 | 72 | 343 | 0.0 | 1.0 | 0.00 | 0.00 | 0.00 | 63 | 1007.4 |
| 20260505010304 | 72 | 346 | 0.0 | 3.0 | 0.00 | 0.00 | 0.00 | 63 | 1007.5 |
| 20260505005800 | 72 | 323 | 1.0 | 5.0 | 0.00 | 0.00 | 0.00 | 62 | 1007.5 |
| 20260505005258 | 73 | 343 | 0.0 | 2.0 | 0.00 | 0.00 | 0.00 | 62 | 1007.4 |
| 20260505004755 | 73 | 340 | 0.0 | 5.0 | 0.00 | 0.00 | 0.00 | 61 | 1007.4 |
| 20260505004251 | 73 | 339 | 0.0 | 1.0 | 0.00 | 0.00 | 0.00 | 61 | 1007.4 |
| 20260505003748 | 73 | 2 | 0.0 | 2.0 | 0.00 | 0.00 | 0.00 | 61 | 1007.0 |
| 20260505003246 | 73 | 346 | 0.0 | 1.0 | 0.00 | 0.00 | 0.00 | 60 | 1007.6 |
| 20260505002742 | 74 | 342 | 0.0 | 5.0 | 0.00 | 0.00 | 0.00 | 60 | 1007.3 |
| 20260505002239 | 74 | 340 | 0.0 | 2.0 | 0.00 | 0.00 | 0.00 | 59 | 1007.4 |
| 20260505001737 | 74 | 26 | 1.0 | 5.0 | 0.00 | 0.00 | 0.00 | 59 | 1007.6 |
| 20260505001234 | 75 | 338 | 1.0 | 5.0 | 0.00 | 0.00 | 0.00 | 58 | 1007.4 |
| 20260505000731 | 75 | 328 | 1.0 | 3.0 | 0.00 | 0.00 | 0.00 | 58 | 1007.4 |
| 20260505000229 | 75 | 339 | 1.0 | 2.0 | 0.00 | 0.00 | 0.00 | 58 | 1007.4 |
| 20260504235725 | 76 | 339 | 2.0 | 5.0 | 0.00 | 0.00 | 0.00 | 57 | 1007.3 |
| 20260504235221 | 76 | 168 | 1.0 | 6.0 | 0.00 | 0.00 | 0.00 | 56 | 1007.3 |
| 20260504234719 | 76 | 332 | 2.0 | 7.0 | 0.00 | 0.00 | 0.00 | 56 | 1007.3 |
| 20260504234216 | 76 | 237 | 0.0 | 5.0 | 0.00 | 0.00 | 0.00 | 56 | 1007.3 |
| 20260504233712 | 77 | 25 | 1.0 | 2.0 | 0.00 | 0.00 | 0.00 | 55 | 1007.3 |
| 20260504233208 | 77 | 284 | 2.0 | 5.0 | 0.00 | 0.00 | 0.00 | 55 | 1007.2 |
| 20260504232706 | 77 | 0 | 3.0 | 7.0 | 0.00 | 0.00 | 0.00 | 54 | 1007.2 |
| 20260504232202 | 78 | 350 | 0.0 | 2.0 | 0.00 | 0.00 | 0.00 | 54 | 1007.0 |
| 20260504231659 | 78 | 342 | 1.0 | 7.0 | 0.00 | 0.00 | 0.00 | 53 | 1007.0 |
| 20260504231155 | 78 | 48 | 2.0 | 6.0 | 0.00 | 0.00 | 0.00 | 52 | 1007.1 |
| 20260504230652 | 78 | 2 | 2.0 | 7.0 | 0.00 | 0.00 | 0.00 | 52 | 1007.2 |
| 20260504230151 | 79 | 33 | 2.0 | 6.0 | 0.00 | 0.00 | 0.00 | 52 | 1007.1 |
| 20260504225649 | 79 | 14 | 4.0 | 6.0 | 0.00 | 0.00 | 0.00 | 52 | 1007.1 |
| 20260504225144 | 79 | 341 | 2.0 | 7.0 | 0.00 | 0.00 | 0.00 | 52 | 1007.2 |
| 20260504224641 | 80 | 307 | 2.0 | 10.0 | 0.00 | 0.00 | 0.00 | 51 | 1007.2 |
| 20260504224138 | 80 | 336 | 1.0 | 2.0 | 0.00 | 0.00 | 0.00 | 51 | 1007.2 |
| 20260504223635 | 81 | 317 | 3.0 | 7.0 | 0.00 | 0.00 | 0.00 | 49 | 1007.3 |
| 20260504223131 | 82 | 349 | 0.0 | 2.0 | 0.00 | 0.00 | 0.00 | 50 | 1007.0 |
| 20260504222628 | 81 | 323 | 1.0 | 5.0 | 0.00 | 0.00 | 0.00 | 49 | 1007.1 |
| 20260504222125 | 81 | 349 | 2.0 | 7.0 | 0.00 | 0.00 | 0.00 | 49 | 1007.2 |
| 20260504221622 | 81 | 226 | 2.0 | 5.0 | 0.00 | 0.00 | 0.00 | 50 | 1007.4 |
| 20260504221119 | 81 | 282 | 1.0 | 5.0 | 0.00 | 0.00 | 0.00 | 50 | 1007.1 |
| 20260504220616 | 81 | 317 | 2.0 | 3.0 | 0.00 | 0.00 | 0.00 | 49 | 1007.3 |
| 20260504220114 | 81 | 18 | 1.0 | 8.0 | 0.00 | 0.00 | 0.00 | 49 | 1007.2 |
| 20260504215609 | 82 | 337 | 1.0 | 5.0 | 0.00 | 0.00 | 0.00 | 49 | 1007.6 |
| 20260504215107 | 82 | 319 | 2.0 | 2.0 | 0.00 | 0.00 | 0.00 | 49 | 1007.6 |
| 20260504214603 | 81 | 313 | 0.0 | 2.0 | 0.00 | 0.00 | 0.00 | 50 | 1007.6 |
| 20260504214059 | 81 | 342 | 1.0 | 3.0 | 0.00 | 0.00 | 0.00 | 49 | 1007.6 |
| 20260504213556 | 81 | 326 | 1.0 | 6.0 | 0.00 | 0.00 | 0.00 | 48 | 1007.5 |
| 20260504213053 | 82 | 14 | 1.0 | 8.0 | 0.00 | 0.00 | 0.00 | 48 | 1007.7 |
| 20260504212549 | 82 | 341 | 1.0 | 2.0 | 0.00 | 0.00 | 0.00 | 48 | 1007.7 |
| 20260504212046 | 82 | 349 | 1.0 | 2.0 | 0.00 | 0.00 | 0.00 | 50 | 1007.8 |
| 20260504211543 | 81 | 66 | 0.0 | 7.0 | 0.00 | 0.00 | 0.00 | 51 | 1007.8 |
| 20260504211040 | 81 | 7 | 2.0 | 5.0 | 0.00 | 0.00 | 0.00 | 50 | 1007.9 |
| 20260504210537 | 82 | 329 | 3.0 | 5.0 | 0.00 | 0.00 | 0.00 | 48 | 1008.0 |
| 20260504210033 | 81 | 254 | 1.0 | 7.0 | 0.00 | 0.00 | 0.00 | 49 | 1008.0 |
| 20260504205531 | 81 | 300 | 3.0 | 7.0 | 0.00 | 0.00 | 0.00 | 48 | 1008.1 |
| 20260504205029 | 82 | 2 | 2.0 | 5.0 | 0.00 | 0.00 | 0.00 | 49 | 1008.2 |
| 20260504204527 | 82 | 346 | 3.0 | 6.0 | 0.00 | 0.00 | 0.00 | 49 | 1008.3 |
| 20260504204026 | 81 | 331 | 1.0 | 9.0 | 0.00 | 0.00 | 0.00 | 49 | 1008.4 |
| 20260504203523 | 81 | 328 | 2.0 | 5.0 | 0.00 | 0.00 | 0.00 | 50 | 1008.5 |
| 20260504203021 | 81 | 252 | 1.0 | 6.0 | 0.00 | 0.00 | 0.00 | 48 | 1008.3 |
| 20260504202516 | 81 | 330 | 1.0 | 9.0 | 0.00 | 0.00 | 0.00 | 50 | 1008.4 |
| 20260504202013 | 82 | 236 | 5.0 | 8.0 | 0.00 | 0.00 | 0.00 | 47 | 1008.6 |
| 20260504201510 | 81 | 314 | 2.0 | 6.0 | 0.00 | 0.00 | 0.00 | 50 | 1008.5 |
| 20260504201008 | 82 | 327 | 2.0 | 7.0 | 0.00 | 0.00 | 0.00 | 50 | 1008.7 |
| 20260504200504 | 81 | 316 | 3.0 | 6.0 | 0.00 | 0.00 | 0.00 | 49 | 1008.8 |
| 20260504200001 | 81 | 333 | 1.0 | 6.0 | 0.00 | 0.00 | 0.00 | 51 | 1008.5 |
| 20260504195457 | 81 | 286 | 4.0 | 7.0 | 0.00 | 0.00 | 0.00 | 49 | 1008.6 |
| 20260504194954 | 80 | 351 | 3.0 | 7.0 | 0.00 | 0.00 | 0.00 | 51 | 1008.9 |
| 20260504194450 | 80 | 294 | 6.0 | 10.0 | 0.00 | 0.00 | 0.00 | 51 | 1008.8 |
| 20260504193945 | 80 | 4 | 3.0 | 8.0 | 0.00 | 0.00 | 0.00 | 53 | 1008.8 |
| 20260504193443 | 80 | 359 | 4.0 | 6.0 | 0.00 | 0.00 | 0.00 | 50 | 1008.8 |
| 20260504192942 | 80 | 302 | 2.0 | 9.0 | 0.00 | 0.00 | 0.00 | 52 | 1009.1 |
| 20260504192438 | 80 | 251 | 5.0 | 6.0 | 0.00 | 0.00 | 0.00 | 50 | 1009.0 |
| 20260504191937 | 79 | 272 | 3.0 | 9.0 | 0.00 | 0.00 | 0.00 | 52 | 1009.1 |
| 20260504191435 | 80 | 336 | 2.0 | 5.0 | 0.00 | 0.00 | 0.00 | 51 | 1009.1 |
| 20260504190930 | 80 | 245 | 1.0 | 5.0 | 0.00 | 0.00 | 0.00 | 52 | 1009.2 |
| 20260504190426 | 79 | 251 | 2.0 | 11.0 | 0.00 | 0.00 | 0.00 | 53 | 1009.1 |
| 20260504185923 | 80 | 347 | 1.0 | 5.0 | 0.00 | 0.00 | 0.00 | 51 | 1009.1 |
| 20260504185420 | 80 | 174 | 4.0 | 6.0 | 0.00 | 0.00 | 0.00 | 52 | 1009.2 |
| 20260504184915 | 79 | 353 | 2.0 | 11.0 | 0.00 | 0.00 | 0.00 | 53 | 1009.2 |
| 20260504184412 | 80 | 340 | 2.0 | 14.0 | 0.00 | 0.00 | 0.00 | 52 | 1009.3 |
| 20260504183908 | 80 | 329 | 2.0 | 10.0 | 0.00 | 0.00 | 0.00 | 52 | 1009.6 |
| 20260504183405 | 80 | 282 | 5.0 | 8.0 | 0.00 | 0.00 | 0.00 | 50 | 1009.6 |
| 20260504182903 | 80 | 354 | 1.0 | 6.0 | 0.00 | 0.00 | 0.00 | 53 | 1009.7 |
| 20260504182400 | 79 | 318 | 3.0 | 7.0 | 0.00 | 0.00 | 0.00 | 53 | 1009.6 |
| 20260504181856 | 79 | 345 | 3.0 | 6.0 | 0.00 | 0.00 | 0.00 | 53 | 1009.7 |
| 20260504181354 | 79 | 317 | 1.0 | 6.0 | 0.00 | 0.00 | 0.00 | 53 | 1009.7 |
| 20260504180853 | 78 | 328 | 1.0 | 6.0 | 0.00 | 0.00 | 0.00 | 53 | 1009.9 |
| 20260504180351 | 78 | 295 | 1.0 | 6.0 | 0.00 | 0.00 | 0.00 | 53 | 1009.9 |
| 20260504175849 | 78 | 88 | 3.0 | 8.0 | 0.00 | 0.00 | 0.00 | 53 | 1009.9 |
| 20260504175345 | 78 | 359 | 1.0 | 5.0 | 0.00 | 0.00 | 0.00 | 54 | 1010.1 |
| 20260504174843 | 78 | 274 | 2.0 | 5.0 | 0.00 | 0.00 | 0.00 | 54 | 1010.0 |
| 20260504174341 | 77 | 336 | 1.0 | 13.0 | 0.00 | 0.00 | 0.00 | 54 | 1010.1 |
| 20260504173837 | 78 | 303 | 2.0 | 7.0 | 0.00 | 0.00 | 0.00 | 53 | 1010.1 |
| 20260504173334 | 78 | 86 | 2.0 | 7.0 | 0.00 | 0.00 | 0.00 | 53 | 1010.4 |
| 20260504172831 | 77 | 317 | 2.0 | 7.0 | 0.00 | 0.00 | 0.00 | 53 | 1010.4 |
| 20260504172328 | 77 | 355 | 0.0 | 6.0 | 0.00 | 0.00 | 0.00 | 55 | 1010.3 |
| 20260504171824 | 77 | 237 | 1.0 | 6.0 | 0.00 | 0.00 | 0.00 | 54 | 1010.4 |
| 20260504171321 | 76 | 39 | 3.0 | 7.0 | 0.00 | 0.00 | 0.00 | 54 | 1010.5 |
| 20260504170818 | 76 | 349 | 3.0 | 10.0 | 0.00 | 0.00 | 0.00 | 53 | 1010.3 |
| 20260504170315 | 77 | 45 | 3.0 | 7.0 | 0.00 | 0.00 | 0.00 | 52 | 1010.4 |
| 20260504160233 | 76 | 336 | 1.0 | 8.0 | 0.00 | 0.00 | 0.00 | 53 | 1010.9 |
| 20260504150659 | 73 | 276 | 2.0 | 7.0 | 0.00 | 0.00 | 0.00 | 54 | 1011.1 |
| 20260504150155 | 72 | 349 | 1.0 | 15.0 | 0.00 | 0.00 | 0.00 | 55 | 1011.1 |
| 20260504141124 | 70 | 243 | 5.0 | 10.0 | 0.00 | 0.00 | 0.00 | 56 | 1011.5 |
| 20260504140621 | 70 | 0 | 3.0 | 13.0 | 0.00 | 0.00 | 0.00 | 55 | 1011.8 |
| 20260504140117 | 69 | 26 | 1.0 | 9.0 | 0.00 | 0.00 | 0.00 | 56 | 1011.6 |
| 20260504130545 | 67 | 347 | 2.0 | 6.0 | 0.00 | 0.00 | 0.00 | 60 | 1012.0 |